createdAt,value
2023-05-14T00:04:43.374Z,97743.59
2023-05-14T00:09:44.684Z,97737.28
2023-05-14T00:14:46.009Z,97732.66
2023-05-14T00:19:47.276Z,97726.44
2023-05-14T00:24:48.612Z,97730.50
2023-05-14T00:29:49.947Z,97733.50
2023-05-14T00:34:51.236Z,97747.19
2023-05-14T00:39:52.571Z,97732.88
2023-05-14T00:44:54.052Z,97746.03
2023-05-14T00:49:55.513Z,97739.41
2023-05-14T00:54:56.946Z,97744.13
2023-05-14T00:59:58.284Z,97735.69
2023-05-14T01:04:59.582Z,97732.03
2023-05-14T01:10:01.600Z,97731.97
2023-05-14T01:15:02.992Z,97728.75
2023-05-14T01:20:04.451Z,97729.91
2023-05-14T01:25:05.803Z,97719.53
2023-05-14T01:30:08.257Z,97722.19
2023-05-14T01:35:09.516Z,97720.22
2023-05-14T01:40:10.765Z,97712.81
2023-05-14T01:45:12.065Z,97719.16
2023-05-14T01:50:13.421Z,97713.75
2023-05-14T01:55:15.964Z,97714.28
2023-05-14T02:00:17.280Z,97717.41
2023-05-14T02:05:18.872Z,97706.31
2023-05-14T02:10:20.215Z,97710.06
2023-05-14T02:15:21.490Z,97704.31
2023-05-14T02:20:22.936Z,97711.59
2023-05-14T02:25:24.349Z,97702.94
2023-05-14T02:30:25.762Z,97708.16
2023-05-14T02:35:27.248Z,97707.00
2023-05-14T02:40:28.597Z,97699.53
2023-05-14T02:45:29.905Z,97689.41
2023-05-14T02:50:31.135Z,97693.84
2023-05-14T02:55:32.407Z,97677.41
2023-05-14T03:00:33.726Z,97675.53
2023-05-14T03:05:35.710Z,97682.72
2023-05-14T03:10:37.158Z,97674.66
2023-05-14T03:15:38.428Z,97675.53
2023-05-14T03:20:39.668Z,97670.16
2023-05-14T03:25:41.095Z,97665.63
2023-05-14T03:30:42.375Z,97659.56
2023-05-14T03:35:43.684Z,97658.34
2023-05-14T03:40:45.371Z,97669.78
2023-05-14T03:45:46.638Z,97677.34
2023-05-14T03:50:47.922Z,97676.31
2023-05-14T03:55:49.291Z,97670.75
2023-05-14T04:00:50.738Z,97666.81
2023-05-14T04:05:52.407Z,97673.72
2023-05-14T04:10:53.706Z,97653.84
2023-05-14T04:15:55.001Z,97664.53
2023-05-14T04:20:56.275Z,97669.13
2023-05-14T04:25:57.534Z,97664.03
2023-05-14T04:30:58.768Z,97661.03
2023-05-14T04:36:00.258Z,97660.44
2023-05-14T04:41:02.174Z,97673.44
2023-05-14T04:46:03.501Z,97665.31
2023-05-14T04:51:06.949Z,97668.66
2023-05-14T04:56:08.505Z,97670.97
2023-05-14T05:01:10.012Z,97671.94
2023-05-14T05:06:11.306Z,97664.41
2023-05-14T05:11:12.543Z,97664.97
2023-05-14T05:16:13.852Z,97667.47
2023-05-14T05:21:15.233Z,97665.94
2023-05-14T05:26:16.699Z,97656.09
2023-05-14T05:31:19.679Z,97662.44
2023-05-14T05:36:21.276Z,97659.63
2023-05-14T05:41:22.556Z,97647.50
2023-05-14T05:46:23.939Z,97647.03
2023-05-14T05:51:25.283Z,97650.81
2023-05-14T05:56:26.678Z,97644.88
2023-05-14T06:01:27.986Z,97647.13
2023-05-14T06:06:29.268Z,97644.66
2023-05-14T06:11:30.542Z,97634.97
2023-05-14T06:16:31.987Z,97638.25
2023-05-14T06:21:33.406Z,97636.59
2023-05-14T06:26:34.648Z,97633.16
2023-05-14T06:31:35.937Z,97629.34
2023-05-14T06:36:37.368Z,97614.50
2023-05-14T06:41:38.659Z,97616.44
2023-05-14T06:46:39.922Z,97612.25
2023-05-14T06:51:41.950Z,97610.22
2023-05-14T06:56:43.304Z,97603.91
2023-05-14T07:01:44.856Z,97593.53
2023-05-14T07:06:47.325Z,97588.84
2023-05-14T07:11:48.579Z,97575.25
2023-05-14T07:16:49.850Z,97577.25
2023-05-14T07:21:51.085Z,97571.19
2023-05-14T07:26:52.373Z,97556.94
2023-05-14T07:31:53.737Z,97550.31
2023-05-14T07:36:55.061Z,97544.97
2023-05-14T07:41:56.432Z,97552.50
2023-05-14T07:46:57.751Z,97549.03
2023-05-14T07:51:59.055Z,97537.53
2023-05-14T07:57:00.294Z,97524.66
2023-05-14T08:02:01.632Z,97512.13
2023-05-14T08:07:02.945Z,97506.22
2023-05-14T08:12:04.246Z,97491.88
2023-05-14T08:17:06.102Z,97481.94
2023-05-14T08:22:07.418Z,97464.78
2023-05-14T08:27:08.672Z,97460.97
2023-05-14T08:32:19.786Z,97458.66
2023-05-14T08:37:24.829Z,97448.25
2023-05-14T08:42:26.094Z,97444.97
2023-05-14T08:47:27.634Z,97443.06
2023-05-14T08:52:29.123Z,97430.22
2023-05-14T08:57:31.097Z,97418.38
2023-05-14T09:02:32.383Z,97415.31
2023-05-14T09:07:33.704Z,97406.56
2023-05-14T09:12:35.058Z,97394.03
2023-05-14T09:17:36.531Z,97395.13
2023-05-14T09:22:37.858Z,97396.78
2023-05-14T09:27:39.137Z,97383.28
2023-05-14T09:32:40.518Z,97384.47
2023-05-14T09:37:42.766Z,97373.16
2023-05-14T09:42:44.088Z,97362.06
2023-05-14T09:47:45.700Z,97359.56
2023-05-14T09:52:47.232Z,97355.75
2023-05-14T09:57:48.502Z,97361.38
2023-05-14T10:02:49.825Z,97349.09
2023-05-14T10:07:51.052Z,97333.28
2023-05-14T10:12:52.468Z,97328.84
2023-05-14T10:17:53.737Z,97318.28
2023-05-14T10:22:55.085Z,97335.44
2023-05-14T10:27:56.329Z,97328.47
2023-05-14T10:32:57.586Z,97332.22
2023-05-14T10:37:58.840Z,97331.91
2023-05-14T10:43:00.041Z,97345.25
2023-05-14T10:48:01.388Z,97346.50
2023-05-14T10:53:02.687Z,97348.34
2023-05-14T10:58:03.929Z,97350.06
2023-05-14T11:03:05.691Z,97351.66
2023-05-14T11:08:07.860Z,97348.34
2023-05-14T11:13:09.282Z,97353.00
2023-05-14T11:18:10.669Z,97330.50
2023-05-14T11:23:11.979Z,97326.75
2023-05-14T11:28:13.298Z,97323.97
2023-05-14T11:33:14.645Z,97320.56
2023-05-14T11:38:16.296Z,97315.38
2023-05-14T11:43:17.513Z,97301.91
2023-05-14T11:48:18.975Z,97295.53
2023-05-14T11:53:20.355Z,97289.81
2023-05-14T11:58:21.713Z,97287.50
2023-05-14T12:03:26.300Z,97279.59
2023-05-14T12:08:27.868Z,97277.47
2023-05-14T12:13:29.085Z,97262.41
2023-05-14T12:18:32.010Z,97252.28
2023-05-14T12:23:33.369Z,97249.19
2023-05-14T12:28:37.573Z,97243.03
2023-05-14T12:33:39.391Z,97230.72
2023-05-14T12:38:41.262Z,97233.34
2023-05-14T12:43:42.556Z,97228.28
2023-05-14T12:48:43.823Z,97225.44
2023-05-14T12:53:45.109Z,97216.84
2023-05-14T12:58:46.895Z,97201.19
2023-05-14T13:03:48.209Z,97197.59
2023-05-14T13:08:49.511Z,97202.19
2023-05-14T13:13:50.753Z,97187.69
2023-05-14T13:18:52.261Z,97187.53
2023-05-14T13:23:53.543Z,97179.81
2023-05-14T13:28:54.751Z,97186.44
2023-05-14T13:33:57.936Z,97178.16
2023-05-14T13:38:59.201Z,97180.84
2023-05-14T13:44:00.457Z,97190.91
2023-05-14T13:49:01.786Z,97203.78
2023-05-14T13:54:03.490Z,97241.09
2023-05-14T13:59:04.892Z,97286.19
2023-05-14T14:04:06.172Z,97315.59
2023-05-14T14:09:07.494Z,97339.72
2023-05-14T14:14:10.415Z,97368.22
2023-05-14T14:19:11.744Z,97363.88
2023-05-14T14:24:13.114Z,97368.81
2023-05-14T14:29:14.905Z,97386.03
2023-05-14T14:34:16.677Z,97403.94
2023-05-14T14:39:18.061Z,97413.25
2023-05-14T14:44:19.366Z,97413.50
2023-05-14T14:49:20.687Z,97414.38
2023-05-14T14:54:21.977Z,97423.56
2023-05-14T14:59:23.275Z,97428.59
2023-05-14T15:04:24.633Z,97423.50
2023-05-14T15:09:25.932Z,97419.34
2023-05-14T15:14:27.189Z,97409.63
2023-05-14T15:19:28.423Z,97411.88
2023-05-14T15:24:29.616Z,97403.41
2023-05-14T15:29:30.862Z,97402.44
2023-05-14T15:34:32.083Z,97402.81
2023-05-14T15:39:33.390Z,97400.28
2023-05-14T15:44:36.013Z,97408.53
2023-05-14T15:49:39.429Z,97402.63
2023-05-14T15:54:40.647Z,97400.69
2023-05-14T15:59:42.164Z,97401.53
2023-05-14T16:04:45.228Z,97385.56
2023-05-14T16:09:46.476Z,97383.56
2023-05-14T16:14:47.869Z,97378.56
2023-05-14T16:19:49.160Z,97371.81
2023-05-14T16:24:50.611Z,97355.41
2023-05-14T16:29:51.880Z,97354.25
2023-05-14T16:34:53.209Z,97351.69
2023-05-14T16:39:54.849Z,97337.97
2023-05-14T16:44:57.211Z,97342.03
2023-05-14T16:49:58.636Z,97341.88
2023-05-14T16:54:59.931Z,97341.13
2023-05-14T17:00:01.413Z,97334.84
2023-05-14T17:05:03.967Z,97333.31
2023-05-14T17:10:05.322Z,97326.91
2023-05-14T17:15:06.977Z,97321.63
2023-05-14T17:20:08.380Z,97322.09
2023-05-14T17:25:09.708Z,97318.13
2023-05-14T17:30:10.970Z,97307.59
2023-05-14T17:35:12.315Z,97304.03
2023-05-14T17:40:13.648Z,97295.47
2023-05-14T17:45:15.605Z,97297.97
2023-05-14T17:50:17.220Z,97303.28
2023-05-14T17:55:19.212Z,97314.31
2023-05-14T18:00:20.673Z,97326.16
2023-05-14T18:05:22.174Z,97333.47
2023-05-14T18:10:23.585Z,97329.63
2023-05-14T18:15:25.902Z,97318.47
2023-05-14T18:20:27.280Z,97306.97
2023-05-14T18:25:28.537Z,97312.03
2023-05-14T18:30:29.802Z,97304.56
2023-05-14T18:35:31.056Z,97314.31
2023-05-14T18:40:32.310Z,97307.69
2023-05-14T18:45:33.689Z,97307.06
2023-05-14T18:50:36.097Z,97304.66
2023-05-14T18:55:38.263Z,97307.59
2023-05-14T19:00:39.473Z,97311.19
2023-05-14T19:05:40.690Z,97311.34
2023-05-14T19:10:41.950Z,97324.91
2023-05-14T19:15:43.255Z,97334.91
2023-05-14T19:20:46.541Z,97346.91
2023-05-14T19:25:47.814Z,97345.13
2023-05-14T19:30:51.117Z,97347.53
2023-05-14T19:35:52.940Z,97351.31
2023-05-14T19:40:56.883Z,97357.34
2023-05-14T19:46:00.592Z,97358.34
2023-05-14T19:51:03.126Z,97365.44
2023-05-14T19:56:04.375Z,97369.94
2023-05-14T20:01:05.690Z,97372.09
2023-05-14T20:06:07.868Z,97367.63
2023-05-14T20:11:09.141Z,97367.19
2023-05-14T20:16:10.558Z,97383.66
2023-05-14T20:21:11.845Z,97380.06
2023-05-14T20:26:13.157Z,97371.00
2023-05-14T20:31:14.464Z,97360.63
2023-05-14T20:36:16.043Z,97354.94
2023-05-14T20:41:17.255Z,97353.66
2023-05-14T20:46:18.581Z,97355.75
2023-05-14T20:51:21.493Z,97343.75
2023-05-14T20:56:22.729Z,97347.19
2023-05-14T21:01:23.962Z,97335.31
2023-05-14T21:06:25.231Z,97332.03
2023-05-14T21:11:26.487Z,97333.44
2023-05-14T21:16:27.809Z,97347.78
2023-05-14T21:21:29.100Z,97352.63
2023-05-14T21:26:30.438Z,97357.94
2023-05-14T21:31:31.731Z,97365.78
2023-05-14T21:36:33.066Z,97360.81
2023-05-14T21:41:34.363Z,97347.19
2023-05-14T21:46:35.957Z,97353.31
2023-05-14T21:51:37.206Z,97355.91
2023-05-14T21:56:38.427Z,97356.59
2023-05-14T22:01:56.148Z,97357.25
2023-05-14T22:07:00.881Z,97360.84
2023-05-14T22:12:02.102Z,97354.66
2023-05-14T22:17:03.349Z,97346.97
2023-05-14T22:22:04.625Z,97343.16
2023-05-14T22:27:06.234Z,97341.19
2023-05-14T22:32:08.535Z,97325.88
2023-05-14T22:37:09.792Z,97323.97
2023-05-14T22:42:11.110Z,97325.66
2023-05-14T22:47:12.363Z,97326.97
2023-05-14T22:52:13.571Z,97325.47
2023-05-14T22:57:14.795Z,97304.19
2023-05-14T23:02:16.131Z,97305.16
2023-05-14T23:07:17.460Z,97301.28
2023-05-14T23:12:18.808Z,97294.81
2023-05-14T23:17:20.057Z,97292.66
2023-05-14T23:22:21.316Z,97275.59
2023-05-14T23:27:22.824Z,97260.50
2023-05-14T23:32:24.092Z,97269.06
2023-05-14T23:37:25.548Z,97260.56
2023-05-14T23:42:26.770Z,97252.78
2023-05-14T23:47:27.990Z,97254.50
2023-05-14T23:52:29.191Z,97251.81
2023-05-14T23:57:30.518Z,97245.94
